createdAt,value
2022-08-02T00:01:03.190Z,97599.48
2022-08-02T00:03:31.472Z,97604.01
2022-08-02T00:06:01.293Z,97601.59
2022-08-02T00:08:29.380Z,97604.25
2022-08-02T00:10:57.406Z,97600.60
2022-08-02T00:13:25.596Z,97602.90
2022-08-02T00:15:53.701Z,97602.42
2022-08-02T00:18:21.787Z,97607.69
2022-08-02T00:20:50.176Z,97604.75
2022-08-02T00:23:18.383Z,97611.59
2022-08-02T00:25:55.203Z,97610.40
2022-08-02T00:28:27.817Z,97605.64
2022-08-02T00:30:58.068Z,97600.84
2022-08-02T00:34:26.780Z,97599.54
2022-08-02T00:36:15.353Z,97604.09
2022-08-02T00:38:44.176Z,97604.46
2022-08-02T00:41:18.058Z,97612.48
2022-08-02T00:43:48.057Z,97610.50
2022-08-02T00:46:17.485Z,97612.13
2022-08-02T00:48:45.983Z,97605.13
2022-08-02T00:51:15.388Z,97610.85
2022-08-02T00:53:44.362Z,97610.02
2022-08-02T00:56:12.343Z,97608.91
2022-08-02T00:58:40.391Z,97604.23
2022-08-02T01:01:08.526Z,97603.83
2022-08-02T01:03:36.555Z,97600.92
2022-08-02T01:06:12.077Z,97604.05
2022-08-02T01:08:40.790Z,97601.69
2022-08-02T01:11:08.862Z,97603.31
2022-08-02T01:13:37.348Z,97603.79
2022-08-02T01:16:12.503Z,97603.02
2022-08-02T01:18:42.394Z,97604.79
2022-08-02T01:21:29.139Z,97602.70
2022-08-02T01:24:17.250Z,97597.98
2022-08-02T01:27:05.661Z,97598.20
2022-08-02T01:29:45.632Z,97597.91
2022-08-02T01:32:23.589Z,97591.65
2022-08-02T01:34:58.456Z,97593.70
2022-08-02T01:37:32.475Z,97595.98
2022-08-02T01:40:13.408Z,97594.83
2022-08-02T01:42:47.353Z,97591.11
2022-08-02T01:45:18.069Z,97596.61
2022-08-02T01:47:48.146Z,97595.22
2022-08-02T01:50:18.703Z,97599.50
2022-08-02T01:52:53.155Z,97600.17
2022-08-02T01:55:56.940Z,97600.02
2022-08-02T01:58:26.986Z,97598.21
2022-08-02T02:00:57.659Z,97599.13
2022-08-02T02:03:27.372Z,97601.40
2022-08-02T02:05:58.912Z,97601.41
2022-08-02T02:08:36.489Z,97603.78
2022-08-02T02:12:10.210Z,97604.30
2022-08-02T02:13:53.517Z,97603.29
2022-08-02T02:16:23.434Z,97605.83
2022-08-02T02:18:53.075Z,97601.13
2022-08-02T02:21:21.810Z,97598.25
2022-08-02T02:23:50.784Z,97599.29
2022-08-02T02:26:28.446Z,97599.14
2022-08-02T02:29:02.196Z,97600.67
2022-08-02T02:31:36.701Z,97600.27
2022-08-02T02:34:10.639Z,97601.30
2022-08-02T02:36:42.389Z,97602.39
2022-08-02T02:39:13.923Z,97601.55
2022-08-02T02:41:44.628Z,97607.33
2022-08-02T02:44:16.659Z,97607.88
2022-08-02T02:46:46.108Z,97611.45
2022-08-02T02:49:16.611Z,97608.37
2022-08-02T02:51:46.212Z,97607.07
2022-08-02T02:54:30.294Z,97604.27
2022-08-02T02:57:05.676Z,97604.89
2022-08-02T02:59:36.025Z,97607.13
2022-08-02T03:02:05.923Z,97609.55
2022-08-02T03:04:56.944Z,97613.18
2022-08-02T03:07:24.068Z,97608.65
2022-08-02T03:09:54.000Z,97605.88
2022-08-02T03:12:30.819Z,97604.29
2022-08-02T03:15:02.367Z,97605.34
2022-08-02T03:17:44.895Z,97607.09
2022-08-02T03:20:20.517Z,97610.21
2022-08-02T03:22:49.593Z,97616.71
2022-08-02T03:25:18.809Z,97618.92
2022-08-02T03:27:47.867Z,97619.13
2022-08-02T03:30:15.935Z,97624.77
2022-08-02T03:32:49.280Z,97627.28
2022-08-02T03:35:23.848Z,97634.14
2022-08-02T03:37:56.617Z,97631.02
2022-08-02T03:40:25.989Z,97631.74
2022-08-02T03:42:55.040Z,97634.67
2022-08-02T03:45:24.737Z,97637.78
2022-08-02T03:47:52.823Z,97638.95
2022-08-02T03:50:23.092Z,97639.77
2022-08-02T03:52:52.539Z,97639.21
2022-08-02T03:55:20.684Z,97643.13
2022-08-02T03:57:48.906Z,97647.25
2022-08-02T04:00:19.992Z,97648.36
2022-08-02T04:02:49.198Z,97650.89
2022-08-02T04:05:18.410Z,97652.63
2022-08-02T04:08:33.961Z,97653.55
2022-08-02T04:10:56.330Z,97657.36
2022-08-02T04:13:37.320Z,97655.20
2022-08-02T04:16:12.649Z,97651.27
2022-08-02T04:19:05.305Z,97657.51
2022-08-02T04:21:49.896Z,97659.61
2022-08-02T04:24:25.697Z,97657.77
2022-08-02T04:26:58.108Z,97664.30
2022-08-02T04:29:36.845Z,97670.95
2022-08-02T04:32:06.290Z,97661.89
2022-08-02T04:34:37.499Z,97655.49
2022-08-02T04:37:06.503Z,97662.41
2022-08-02T04:39:34.985Z,97659.58
2022-08-02T04:42:05.586Z,97649.83
2022-08-02T04:44:34.537Z,97643.14
2022-08-02T04:47:06.913Z,97645.73
2022-08-02T04:49:35.157Z,97647.48
2022-08-02T04:52:04.907Z,97636.42
2022-08-02T04:54:33.091Z,97638.83
2022-08-02T04:57:01.484Z,97628.40
2022-08-02T04:59:29.683Z,97632.27
2022-08-02T05:01:57.867Z,97628.63
2022-08-02T05:04:26.643Z,97626.91
2022-08-02T05:06:54.806Z,97625.69
2022-08-02T05:09:22.858Z,97629.77
2022-08-02T05:11:55.058Z,97639.26
2022-08-02T05:14:23.452Z,97622.46
2022-08-02T05:16:51.602Z,97631.58
2022-08-02T05:19:19.642Z,97639.78
2022-08-02T05:21:49.085Z,97642.84
2022-08-02T05:24:17.125Z,97642.55
2022-08-02T05:26:45.315Z,97644.65
2022-08-02T05:29:13.736Z,97622.48
2022-08-02T05:31:41.896Z,97632.23
2022-08-02T05:34:12.164Z,97640.88
2022-08-02T05:36:42.173Z,97648.27
2022-08-02T05:39:11.585Z,97643.66
2022-08-02T05:41:46.824Z,97653.54
2022-08-02T05:44:15.097Z,97633.86
2022-08-02T05:46:43.260Z,97644.36
2022-08-02T05:49:11.607Z,97654.02
2022-08-02T05:51:52.703Z,97632.70
2022-08-02T05:54:51.679Z,97656.02
2022-08-02T05:58:05.416Z,97629.51
2022-08-02T06:00:37.871Z,97641.20
2022-08-02T06:03:26.356Z,97638.38
2022-08-02T06:06:01.312Z,97651.13
2022-08-02T06:08:39.393Z,97662.42
2022-08-02T06:11:13.450Z,97648.36
2022-08-02T06:13:43.491Z,97617.91
2022-08-02T06:16:14.289Z,97634.52
2022-08-02T06:18:44.367Z,97623.14
2022-08-02T06:22:33.422Z,97645.13
2022-08-02T06:24:06.547Z,97642.66
2022-08-02T06:26:37.410Z,97620.17
2022-08-02T06:29:16.700Z,97620.48
2022-08-02T06:31:54.040Z,97624.55
2022-08-02T06:34:24.275Z,97619.85
2022-08-02T06:37:07.840Z,97629.70
2022-08-02T06:39:51.390Z,97630.73
2022-08-02T06:42:33.743Z,97656.52
2022-08-02T06:45:05.200Z,97644.40
2022-08-02T06:47:34.114Z,97658.34
2022-08-02T06:50:06.811Z,97641.55
2022-08-02T06:52:35.880Z,97634.73
2022-08-02T06:55:06.601Z,97644.55
2022-08-02T06:57:35.651Z,97639.23
2022-08-02T07:00:09.129Z,97633.23
2022-08-02T07:02:37.714Z,97650.65
2022-08-02T07:05:06.828Z,97645.44
2022-08-02T07:07:35.123Z,97652.00
2022-08-02T07:10:04.530Z,97636.63
2022-08-02T07:12:34.641Z,97647.33
2022-08-02T07:15:06.649Z,97654.86
2022-08-02T07:17:35.496Z,97631.73
2022-08-02T07:20:04.870Z,97635.63
2022-08-02T07:22:33.212Z,97647.98
2022-08-02T07:25:02.386Z,97633.18
2022-08-02T07:27:31.323Z,97626.83
2022-08-02T07:30:00.468Z,97642.63
2022-08-02T07:32:30.628Z,97642.42
2022-08-02T07:35:00.300Z,97635.27
2022-08-02T07:37:35.265Z,97620.61
2022-08-02T07:40:24.347Z,97639.85
2022-08-02T07:43:01.000Z,97644.42
2022-08-02T07:45:36.071Z,97631.39
2022-08-02T07:48:16.846Z,97628.23
2022-08-02T07:50:46.804Z,97636.31
2022-08-02T07:53:17.138Z,97615.58
2022-08-02T07:55:47.228Z,97617.88
2022-08-02T07:58:16.154Z,97627.72
2022-08-02T08:00:46.773Z,97622.92
2022-08-02T08:03:14.895Z,97629.58
2022-08-02T08:05:43.088Z,97616.70
2022-08-02T08:08:16.894Z,97625.84
2022-08-02T08:10:47.087Z,97620.20
2022-08-02T08:13:15.576Z,97617.31
2022-08-02T08:15:52.070Z,97621.78
2022-08-02T08:18:21.950Z,97631.89
2022-08-02T08:20:50.517Z,97642.42
2022-08-02T08:23:18.728Z,97641.56
2022-08-02T08:25:48.481Z,97639.83
2022-08-02T08:28:26.212Z,97637.27
2022-08-02T08:30:56.777Z,97626.13
2022-08-02T08:33:25.159Z,97629.09
2022-08-02T08:35:54.100Z,97632.95
2022-08-02T08:38:22.705Z,97639.99
2022-08-02T08:40:53.240Z,97644.70
2022-08-02T08:43:22.517Z,97630.41
2022-08-02T08:45:55.906Z,97635.02
2022-08-02T08:48:31.275Z,97628.48
2022-08-02T08:51:10.645Z,97631.41
2022-08-02T08:53:48.949Z,97636.19
2022-08-02T08:56:17.857Z,97623.98
2022-08-02T08:58:47.912Z,97627.40
2022-08-02T09:01:17.240Z,97626.37
2022-08-02T09:03:46.210Z,97624.69
2022-08-02T09:06:14.882Z,97632.76
2022-08-02T09:08:43.486Z,97629.02
2022-08-02T09:11:16.970Z,97635.40
2022-08-02T09:13:57.192Z,97633.46
2022-08-02T09:16:34.976Z,97629.39
2022-08-02T09:19:20.427Z,97628.73
2022-08-02T09:22:12.022Z,97621.42
2022-08-02T09:24:44.530Z,97626.64
2022-08-02T09:27:15.183Z,97626.75
2022-08-02T09:32:48.502Z,97613.10
2022-08-02T09:36:06.363Z,97608.94
2022-08-02T09:38:26.100Z,97610.89
2022-08-02T09:40:55.323Z,97616.38
2022-08-02T09:44:03.165Z,97609.83
2022-08-02T09:46:34.363Z,97605.49
2022-08-02T09:49:05.352Z,97603.73
2022-08-02T09:51:48.710Z,97615.05
2022-08-02T09:54:19.771Z,97610.08
2022-08-02T09:56:54.302Z,97610.03
2022-08-02T09:59:27.084Z,97602.73
2022-08-02T10:02:01.245Z,97604.92
2022-08-02T10:04:52.530Z,97599.13
2022-08-02T10:07:23.246Z,97604.83
2022-08-02T10:09:52.151Z,97595.00
2022-08-02T10:12:22.462Z,97602.68
2022-08-02T10:15:02.756Z,97595.80
2022-08-02T10:17:32.834Z,97583.45
2022-08-02T10:20:04.614Z,97587.90
2022-08-02T10:22:35.766Z,97581.20
2022-08-02T10:25:04.835Z,97570.02
2022-08-02T10:28:02.908Z,97565.65
2022-08-02T10:30:27.522Z,97573.56
2022-08-02T10:33:00.850Z,97572.08
2022-08-02T10:35:33.017Z,97575.64
2022-08-02T10:38:04.570Z,97574.11
2022-08-02T10:40:45.717Z,97568.13
2022-08-02T10:43:34.319Z,97561.33
2022-08-02T10:46:37.908Z,97564.84
2022-08-02T10:52:16.061Z,97555.59
2022-08-02T10:54:59.906Z,97553.50
2022-08-02T10:57:36.705Z,97549.27
2022-08-02T11:00:25.479Z,97542.64
2022-08-02T11:02:56.723Z,97549.04
2022-08-02T11:05:43.463Z,97547.82
2022-08-02T11:08:20.228Z,97544.17
2022-08-02T11:10:48.742Z,97541.59
2022-08-02T11:13:21.753Z,97543.03
2022-08-02T11:16:05.397Z,97535.86
2022-08-02T11:18:58.392Z,97537.59
2022-08-02T11:21:32.211Z,97540.23
2022-08-02T11:24:37.216Z,97541.50
2022-08-02T11:27:09.858Z,97531.73
2022-08-02T11:29:50.013Z,97531.69
2022-08-02T11:32:31.272Z,97529.08
2022-08-02T11:35:03.993Z,97533.84
2022-08-02T11:37:43.287Z,97538.85
2022-08-02T11:40:19.802Z,97540.96
2022-08-02T11:42:54.280Z,97536.50
2022-08-02T11:45:29.265Z,97530.59
2022-08-02T11:48:01.640Z,97533.45
2022-08-02T11:50:30.844Z,97536.55
2022-08-02T11:52:59.707Z,97537.06
2022-08-02T11:55:30.541Z,97532.77
2022-08-02T11:58:05.886Z,97527.90
2022-08-02T12:00:35.937Z,97526.16
2022-08-02T12:03:04.370Z,97525.31
2022-08-02T12:08:26.018Z,97529.64
2022-08-02T12:10:55.946Z,97529.05
2022-08-02T12:13:24.205Z,97528.94
2022-08-02T12:15:53.636Z,97532.90
2022-08-02T12:18:45.445Z,97532.05
2022-08-02T12:21:27.322Z,97532.55
2022-08-02T12:23:59.540Z,97530.05
2022-08-02T12:26:31.082Z,97534.02
2022-08-02T12:28:59.958Z,97527.52
2022-08-02T12:31:57.705Z,97526.48
2022-08-02T12:34:31.915Z,97528.20
2022-08-02T12:37:07.401Z,97527.02
2022-08-02T12:39:46.962Z,97524.05
2022-08-02T12:42:16.484Z,97529.46
2022-08-02T12:44:56.292Z,97525.02
2022-08-02T12:47:31.410Z,97526.98
2022-08-02T12:50:27.470Z,97529.84
2022-08-02T12:53:13.684Z,97531.02
2022-08-02T12:56:00.786Z,97528.16
2022-08-02T12:58:49.140Z,97526.69
2022-08-02T13:01:27.533Z,97528.02
2022-08-02T13:04:11.316Z,97524.96
2022-08-02T13:06:44.955Z,97524.77
2022-08-02T13:09:17.311Z,97522.48
2022-08-02T13:11:49.378Z,97525.31
2022-08-02T13:14:18.390Z,97524.01
2022-08-02T13:16:55.837Z,97527.20
2022-08-02T13:19:26.843Z,97525.19
2022-08-02T13:22:02.326Z,97532.05
2022-08-02T13:24:40.891Z,97533.41
2022-08-02T13:27:26.423Z,97528.35
2022-08-02T13:29:59.283Z,97528.10
2022-08-02T13:32:29.058Z,97527.64
2022-08-02T13:35:00.810Z,97525.70
2022-08-02T13:37:29.563Z,97530.11
2022-08-02T13:42:47.267Z,97526.92
2022-08-02T13:45:15.718Z,97521.70
2022-08-02T13:48:03.830Z,97533.48
2022-08-02T13:50:33.989Z,97532.73
2022-08-02T13:53:02.090Z,97527.75
2022-08-02T13:55:31.429Z,97524.50
2022-08-02T13:57:59.851Z,97525.20
2022-08-02T14:00:35.387Z,97524.31
2022-08-02T14:03:12.248Z,97523.63
2022-08-02T14:05:47.646Z,97528.88
2022-08-02T14:08:18.251Z,97532.38
2022-08-02T14:10:48.391Z,97532.25
2022-08-02T14:13:17.641Z,97523.31
2022-08-02T14:15:46.506Z,97535.67
2022-08-02T14:18:15.617Z,97527.68
2022-08-02T14:20:45.394Z,97524.05
2022-08-02T14:23:14.229Z,97525.88
2022-08-02T14:25:43.203Z,97519.06
2022-08-02T14:28:11.239Z,97520.71
2022-08-02T14:30:39.637Z,97519.08
2022-08-02T14:33:07.986Z,97525.00
2022-08-02T14:35:37.446Z,97523.14
2022-08-02T14:38:06.847Z,97524.52
2022-08-02T14:40:35.357Z,97521.33
2022-08-02T14:43:04.470Z,97526.54
2022-08-02T14:45:41.106Z,97523.25
2022-08-02T14:48:11.476Z,97524.41
2022-08-02T14:50:41.533Z,97515.73
2022-08-02T14:53:12.160Z,97519.86
2022-08-02T14:55:42.830Z,97514.93
2022-08-02T14:58:11.853Z,97514.20
2022-08-02T15:00:41.188Z,97514.81
2022-08-02T15:03:11.645Z,97522.96
2022-08-02T15:05:42.712Z,97530.41
2022-08-02T15:08:10.999Z,97535.54
2022-08-02T15:10:39.356Z,97530.19
2022-08-02T15:13:07.814Z,97532.72
2022-08-02T15:15:43.279Z,97528.45
2022-08-02T15:18:13.538Z,97519.85
2022-08-02T15:20:57.537Z,97517.29
2022-08-02T15:23:37.102Z,97522.98
2022-08-02T15:26:07.396Z,97527.16
2022-08-02T15:28:36.069Z,97519.69
2022-08-02T15:31:04.590Z,97527.40
2022-08-02T15:33:33.147Z,97522.70
2022-08-02T15:36:01.401Z,97519.17
2022-08-02T15:38:30.036Z,97517.30
2022-08-02T15:40:58.302Z,97519.98
2022-08-02T15:43:29.548Z,97518.28
2022-08-02T15:45:57.932Z,97532.45
2022-08-02T15:48:26.270Z,97526.71
2022-08-02T15:50:54.610Z,97523.55
2022-08-02T15:53:22.831Z,97524.44
2022-08-02T15:55:53.191Z,97528.15
2022-08-02T15:58:36.144Z,97529.20
2022-08-02T16:01:12.894Z,97525.52
2022-08-02T16:03:41.349Z,97518.86
2022-08-02T16:06:13.697Z,97520.33
2022-08-02T16:08:53.558Z,97529.41
2022-08-02T16:11:23.319Z,97525.10
2022-08-02T16:13:54.399Z,97524.68
2022-08-02T16:16:30.844Z,97524.28
2022-08-02T16:19:45.774Z,97529.34
2022-08-02T16:21:50.953Z,97526.53
2022-08-02T16:24:19.431Z,97534.16
2022-08-02T16:26:47.910Z,97535.99
2022-08-02T16:29:18.852Z,97544.20
2022-08-02T16:31:48.259Z,97544.57
2022-08-02T16:34:17.085Z,97550.50
2022-08-02T16:36:45.528Z,97555.20
2022-08-02T16:39:14.448Z,97556.03
2022-08-02T16:41:52.192Z,97552.64
2022-08-02T16:44:27.611Z,97552.92
2022-08-02T16:47:00.988Z,97551.21
2022-08-02T16:50:05.421Z,97554.30
2022-08-02T16:52:22.426Z,97560.08
2022-08-02T16:54:50.570Z,97561.94
2022-08-02T16:57:19.589Z,97561.64
2022-08-02T16:59:57.821Z,97558.02
2022-08-02T17:02:28.006Z,97565.30
2022-08-02T17:04:58.005Z,97564.88
2022-08-02T17:08:15.008Z,97568.67
2022-08-02T17:10:18.732Z,97567.19
2022-08-02T17:12:51.249Z,97564.63
2022-08-02T17:16:07.450Z,97569.84
2022-08-02T17:18:09.368Z,97569.52
2022-08-02T17:20:37.619Z,97567.35
2022-08-02T17:23:05.900Z,97565.44
2022-08-02T17:25:36.626Z,97569.55
2022-08-02T17:28:10.092Z,97573.81
2022-08-02T17:30:39.410Z,97577.21
2022-08-02T17:33:08.503Z,97585.84
2022-08-02T17:35:43.330Z,97584.70
2022-08-02T17:38:26.207Z,97584.79
2022-08-02T17:40:56.205Z,97581.86
2022-08-02T17:43:25.912Z,97583.54
2022-08-02T17:46:02.560Z,97582.16
2022-08-02T17:48:55.203Z,97583.53
2022-08-02T17:51:33.199Z,97586.61
2022-08-02T17:54:18.996Z,97586.92
2022-08-02T17:56:48.677Z,97584.94
2022-08-02T17:59:21.369Z,97586.15
2022-08-02T18:01:57.399Z,97591.77
2022-08-02T18:04:30.474Z,97593.40
2022-08-02T18:07:04.065Z,97596.06
2022-08-02T18:09:32.935Z,97600.67
2022-08-02T18:12:02.625Z,97605.52
2022-08-02T18:14:30.889Z,97605.12
2022-08-02T18:17:01.421Z,97611.14
2022-08-02T18:19:33.098Z,97607.98
2022-08-02T18:22:18.889Z,97611.60
2022-08-02T18:24:53.257Z,97608.98
2022-08-02T18:27:21.724Z,97616.11
2022-08-02T18:30:04.199Z,97625.36
2022-08-02T18:33:55.737Z,97629.90
2022-08-02T18:35:23.608Z,97633.60
2022-08-02T18:37:56.706Z,97636.45
2022-08-02T18:40:25.703Z,97636.63
2022-08-02T18:42:54.526Z,97640.33
2022-08-02T18:45:22.904Z,97642.73
2022-08-02T18:47:51.441Z,97643.67
2022-08-02T18:50:20.307Z,97645.62
2022-08-02T18:52:48.525Z,97645.56
2022-08-02T18:58:19.530Z,97647.73
2022-08-02T19:00:51.783Z,97649.13
2022-08-02T19:03:20.502Z,97648.73
2022-08-02T19:05:51.636Z,97650.25
2022-08-02T19:08:20.070Z,97646.83
2022-08-02T19:10:56.099Z,97649.58
2022-08-02T19:13:25.406Z,97648.55
2022-08-02T19:15:53.614Z,97652.02
2022-08-02T19:18:26.849Z,97654.55
2022-08-02T19:21:05.131Z,97650.40
2022-08-02T19:23:34.348Z,97654.95
2022-08-02T19:26:02.823Z,97651.23
2022-08-02T19:28:32.637Z,97654.63
2022-08-02T19:31:02.962Z,97655.27
2022-08-02T19:34:04.711Z,97656.61
2022-08-02T19:36:19.161Z,97660.01
2022-08-02T19:38:49.148Z,97662.31
2022-08-02T19:41:17.975Z,97663.89
2022-08-02T19:44:26.159Z,97661.86
2022-08-02T19:46:42.676Z,97667.11
2022-08-02T19:49:19.929Z,97672.41
2022-08-02T19:52:20.466Z,97674.89
2022-08-02T19:54:55.967Z,97681.32
2022-08-02T19:57:25.894Z,97681.27
2022-08-02T19:59:56.840Z,97679.29
2022-08-02T20:02:26.271Z,97678.60
2022-08-02T20:04:54.490Z,97676.23
2022-08-02T20:07:54.453Z,97678.93
2022-08-02T20:10:12.624Z,97674.73
2022-08-02T20:12:41.756Z,97677.46
2022-08-02T20:15:14.855Z,97676.74
2022-08-02T20:17:47.743Z,97679.96
2022-08-02T20:20:18.139Z,97678.24
2022-08-02T20:23:32.555Z,97676.95
2022-08-02T20:25:55.239Z,97673.98
2022-08-02T20:28:24.312Z,97678.60
2022-08-02T20:30:52.444Z,97680.11
2022-08-02T20:33:23.817Z,97680.79
2022-08-02T20:38:41.757Z,97672.17
2022-08-02T20:41:13.061Z,97671.46
2022-08-02T20:43:50.398Z,97672.69
2022-08-02T20:46:18.420Z,97670.90
2022-08-02T20:48:47.478Z,97670.95
2022-08-02T20:51:18.070Z,97671.20
2022-08-02T20:54:00.841Z,97673.87
2022-08-02T20:56:30.646Z,97671.67
2022-08-02T20:59:04.034Z,97674.88
2022-08-02T21:01:56.742Z,97675.60
2022-08-02T21:04:26.496Z,97675.48
2022-08-02T21:06:55.891Z,97678.61
2022-08-02T21:09:52.879Z,97688.36
2022-08-02T21:12:13.575Z,97690.52
2022-08-02T21:14:41.617Z,97690.08
2022-08-02T21:17:11.326Z,97691.17
2022-08-02T21:19:46.149Z,97694.91
2022-08-02T21:22:14.813Z,97699.29
2022-08-02T21:24:43.540Z,97703.23
2022-08-02T21:27:52.735Z,97702.80
2022-08-02T21:30:05.588Z,97696.45
2022-08-02T21:32:35.012Z,97697.19
2022-08-02T21:35:03.895Z,97701.15
2022-08-02T21:37:45.046Z,97702.45
2022-08-02T21:40:13.687Z,97704.95
2022-08-02T21:42:42.052Z,97706.16
2022-08-02T21:45:17.255Z,97705.97
2022-08-02T21:47:48.120Z,97707.81
2022-08-02T21:50:17.493Z,97708.59
2022-08-02T21:52:52.389Z,97711.46
2022-08-02T21:55:24.367Z,97709.49
2022-08-02T21:58:09.760Z,97711.32
2022-08-02T22:00:38.329Z,97706.38
2022-08-02T22:03:22.708Z,97707.61
2022-08-02T22:05:51.486Z,97707.64
2022-08-02T22:08:20.129Z,97709.45
2022-08-02T22:11:03.631Z,97711.27
2022-08-02T22:13:38.734Z,97713.98
2022-08-02T22:16:15.314Z,97714.81
2022-08-02T22:18:51.477Z,97712.21
2022-08-02T22:21:23.126Z,97716.35
2022-08-02T22:23:53.478Z,97718.46
2022-08-02T22:26:21.983Z,97721.98
2022-08-02T22:28:56.180Z,97722.30
2022-08-02T22:31:40.831Z,97718.96
2022-08-02T22:34:26.835Z,97715.55
2022-08-02T22:37:00.307Z,97716.60
2022-08-02T22:42:16.399Z,97725.58
2022-08-02T22:44:44.683Z,97725.86
2022-08-02T22:47:14.647Z,97728.54
2022-08-02T22:49:51.885Z,97726.03
2022-08-02T22:52:24.310Z,97727.94
2022-08-02T22:54:52.398Z,97730.42
2022-08-02T22:57:30.639Z,97729.07
2022-08-02T22:58:46.032Z,97648.20
2022-08-02T22:58:55.826Z,97679.61
2022-08-02T22:59:09.692Z,97719.52
2022-08-02T23:00:06.907Z,97734.06
2022-08-02T23:02:35.421Z,97736.17
2022-08-02T23:05:06.661Z,97735.84
2022-08-02T23:07:36.182Z,97739.39
2022-08-02T23:10:08.054Z,97736.54
2022-08-02T23:12:36.158Z,97736.83
2022-08-02T23:15:04.606Z,97738.68
2022-08-02T23:17:53.046Z,97738.22
2022-08-02T23:20:21.396Z,97739.84
2022-08-02T23:22:49.494Z,97742.33
2022-08-02T23:25:17.880Z,97744.45
2022-08-02T23:27:50.643Z,97745.83
2022-08-02T23:30:20.001Z,97742.05
2022-08-02T23:32:48.126Z,97745.05
2022-08-02T23:35:17.257Z,97744.51
2022-08-02T23:37:59.719Z,97744.45
2022-08-02T23:40:39.174Z,97744.29
2022-08-02T23:43:14.482Z,97748.35
2022-08-02T23:45:45.840Z,97749.95
2022-08-02T23:48:14.015Z,97751.30
2022-08-02T23:50:42.177Z,97746.00
2022-08-02T23:53:10.224Z,97741.69
2022-08-02T23:55:38.244Z,97742.30
2022-08-02T23:58:06.292Z,97742.42
